Historyczne dane pomiarowe

Dodano dane terminowe – wersja testowa.

Dane z okresu 1951-2019

Wersja bazy: 1.34 [2019-03-16, lista zmian], aktualizacja planowana na 2019-04-15

Dane meteo z obszaru Polski uzyskane na podstawie danych udostępnionych przez Instytut Meteorologii i Gospodarki Wodnej – Państwowy Instytut Badawczy.

 

Wybierz Datę:    

       

TemperaturaWilgotnośćWiatrCiśnienieOpadyŚniegCzas trwania zjawisk
 Stacja t tx tn tng RH VA  wxwx mslp ppp RRR   cm mm wxwxwxwxwxwxwx
1994-08-14 12.7 17.5 9.8 8.0-- 6.3 4.3---- 7.4------------
1994-08-13 15.2 19.1 13.7 13.6-- 7.3 3.7---- 6.5------------
1994-08-12 17.0 21.5 14.9 14.5-- 7.0 1.3---- 2.6------------
1994-08-11 18.3 24.7 17.0 14.1-- 8.0 3.0---- 9.8------------
1994-08-10 20.6 28.5 11.3 8.8-- 6.7 1.0---- 0.0------------
1994-08-09 21.5 27.5 16.5 16.1-- 6.0 0.7---- 0.0------------
1994-08-08 20.8 26.0 16.5 16.1-- 7.0 1.0---- 0.0------------
1994-08-07 23.9 28.6 19.3 15.6-- 7.0 1.3---- 6.2------------
1994-08-06 24.5 31.0 14.5 10.6-- 4.0 2.7---- 0.0------------
1994-08-05 24.0 33.1 11.8 8.7-- 0.3 1.3---- 0.0------------
1994-08-04 23.6 29.1 11.4 7.5-- 0.3 1.3---- 0.0------------
1994-08-03 24.1 29.4 19.6 16.7-- 0.7 2.3---- 0.0------------
1994-08-02 26.5 33.0 18.8 18.8-- 5.0 3.0---- 1.1------------
1994-08-01 30.8 36.8 22.0 17.6-- 2.3 2.0---- 0.0------------
1994-07-31 28.2 36.7 17.9 12.9-- 2.3 1.3---- 0.0------------
1994-07-30 27.0 36.4 13.5 10.5-- 0.0 0.7---- 0.0------------
1994-07-29 26.4 35.7 16.0 12.0-- 2.0 0.7---- 0.0------------
1994-07-28 27.7 34.9 18.6 14.2-- 2.0 1.3---- 0.0------------
1994-07-27 26.5 33.4 20.1 17.0-- 5.3 0.0---- 0.0------------
1994-07-26 25.8 34.3 17.0 11.7-- 6.3 1.0---- 0.0------------
1994-07-25 24.4 33.4 13.8 10.0-- 1.7 1.0---- 0.0------------
1994-07-24 24.5 31.5 12.7 9.0-- 1.0 1.0---- 0.0------------
1994-07-23 22.7 30.5 10.6 6.7-- 1.0 1.0---- 0.0------------
1994-07-22 21.7 29.6 12.2 7.3-- 2.3 2.3---- 0.0------------
1994-07-21 20.8 28.7 8.6 4.8-- 0.0 1.3---- 0.0------------
1994-07-20 19.3 24.9 11.5 7.0-- 0.7 2.3---- 0.0------------
1994-07-19 18.8 24.3 11.8 7.7-- 5.0 3.3---- 0.0------------
1994-07-18 19.4 23.8 13.5 11.9-- 5.7 2.3---- 0.0------------
1994-07-17 21.4 28.2 15.1 12.1-- 4.7 1.7---- 1.3------------
1994-07-16 22.6 27.7 14.8 11.6-- 4.7 2.0---- 0.2------------
1994-07-15 25.2 31.1 18.2 14.1-- 4.7 0.7---- 0.0------------
1994-07-14 24.7 31.7 13.5 10.2-- 2.0 1.0---- 0.0------------
1994-07-13 24.4 30.0 14.2 10.6-- 1.7 1.3---- 0.0------------
1994-07-12 22.9 28.2 16.5 14.0-- 2.0 2.7---- 0.0------------
1994-07-11 22.3 28.1 14.0 11.7-- 0.3 3.3---- 0.0------------
1994-07-10 20.3 26.1 13.6 12.6-- 3.7 2.7---- 0.0------------
1994-07-09 16.9 22.0 14.4 13.7-- 7.3 1.3---- 1.8------------
1994-07-08 14.1 17.7 13.0 13.3-- 8.0 4.3---- 13.4------------
1994-07-07 18.6 26.5 11.8 8.1-- 7.3 2.3---- 9.8------------
1994-07-06 20.0 25.6 13.0 9.0-- 4.7 1.3---- 0.0------------
1994-07-05 18.2 25.5 13.6 11.4-- 7.3 1.3---- 0.0------------
1994-07-04 21.9 28.9 13.4 9.5-- 3.7 2.0---- 0.0------------
1994-07-03 21.5 28.0 11.8 7.1-- 0.3 2.3---- 0.0------------
1994-07-02 18.9 25.4 10.4 6.6-- 0.0 2.7---- 0.0------------
1994-07-01 18.6 23.7 7.8 3.6-- 3.0 2.0---- 0.0------------
1994-06-30 20.6 27.2 18.6 17.3-- 5.3 3.0---- 0.0------------
1994-06-29 25.2 33.4 18.2 13.0-- 3.0 2.3---- 0.0------------
1994-06-28 22.9 29.3 16.5 13.8-- 3.0 2.0---- 0.0------------
1994-06-27 23.7 29.9 17.3 12.2-- 2.7 1.7---- 0.0------------
1994-06-26 22.2 30.1 10.5 5.3-- 1.0 1.0---- 0.0------------
1994-06-25 16.9 25.0 7.4 1.2-- 0.0 1.7---- 5.0------------
1994-06-24 15.0 21.1 5.1 0.4-- 0.7 3.0---- 0.0------------
1994-06-23 16.4 21.5 12.5 9.1-- 2.0 6.0---- 0.0------------
1994-06-22 19.8 25.0 14.8 12.4-- 7.3 5.0---- 0.0------------
1994-06-21 15.9 23.2 5.4 2.6-- 3.0 1.0---- 0.0------------
1994-06-20 17.3 21.0 14.3 12.2-- 4.0 3.7---- 0.0------------
1994-06-19 17.4 23.2 12.0 10.7-- 6.7 3.7---- 0.0------------
1994-06-18 12.0 18.6 3.8 -0.1-- 7.7 2.3---- 8.7------------
1994-06-17 11.2 14.8 7.6 6.1-- 5.0 3.7---- 0.0------------
1994-06-16 11.0 16.3 9.1 5.6-- 7.7 3.7---- 2.2------------
584.1 ms

 

Źródłem pochodzenia danych jest Instytut Meteorologii i Gospodarki Wodnej – Państwowy Instytut Badawczy. Dane Instytutu Meteorologii i Gospodarki Wodnej – Państwowego Instytutu Badawczego zostały przetworzone.

Dane źródłowe można odnaleźć na stronie https://dane.imgw.pl